Time,TemperatureF,DewpointF,PressureIn,WindDirection,WindDirectionDegrees,WindSpeedMPH,WindSpeedGustMPH,Humidity,HourlyPrecipIn,Conditions,Clouds,dailyrainin,SoftwareType,DateUTC
2014-03-16 00:23:00,52.0,37.0,29.99,NE,55,7.0,12.0,57,0.00,,,0.00,,2014-03-16 05:23:00,
2014-03-16 00:42:00,51.0,38.0,29.99,ENE,77,6.0,12.0,60,0.00,,,0.00,,2014-03-16 05:42:00,
2014-03-16 00:53:00,50.0,38.0,30.00,ENE,67,4.0,11.0,62,0.00,,,0.00,,2014-03-16 05:53:00,
2014-03-16 01:22:00,48.0,36.0,30.01,East,96,7.0,12.0,64,0.00,,,0.00,,2014-03-16 06:22:00,
2014-03-16 01:42:00,47.0,36.0,30.01,ENE,76,4.0,12.0,65,0.00,,,0.00,,2014-03-16 06:42:00,
2014-03-16 01:52:00,47.0,35.0,30.01,ENE,69,5.0,10.0,64,0.00,,,0.00,,2014-03-16 06:52:00,
2014-03-16 02:22:00,45.0,34.0,30.03,NE,47,7.0,12.0,65,0.00,,,0.00,,2014-03-16 07:22:00,
2014-03-16 02:52:00,44.0,34.0,30.02,NE,46,5.0,17.0,68,0.00,,,0.00,,2014-03-16 07:52:00,
2014-03-16 03:22:00,41.0,33.0,30.03,NE,43,6.0,14.0,73,0.00,,,0.00,,2014-03-16 08:22:00,
2014-03-16 03:42:00,39.0,32.0,30.03,NE,42,7.0,14.0,75,0.00,,,0.00,,2014-03-16 08:42:00,
2014-03-16 03:53:00,38.0,31.0,30.03,NE,38,7.0,13.0,75,0.00,,,0.00,,2014-03-16 08:53:00,
2014-03-16 04:22:00,37.0,30.0,30.02,NE,45,6.0,13.0,77,0.00,,,0.00,,2014-03-16 09:22:00,
2014-03-16 04:43:00,36.0,29.0,30.03,NE,50,8.0,13.0,76,0.00,,,0.00,,2014-03-16 09:43:00,
2014-03-16 04:54:00,36.0,29.0,30.04,NNE,32,5.0,12.0,75,0.00,,,0.00,,2014-03-16 09:54:00,
2014-03-16 05:23:00,35.0,26.0,30.04,NE,56,7.0,17.0,70,0.00,,,0.00,,2014-03-16 10:23:00,
2014-03-16 05:42:00,35.0,26.0,30.03,ENE,66,9.0,15.0,69,0.00,,,0.00,,2014-03-16 10:42:00,
2014-03-16 05:53:00,35.0,26.0,30.03,NE,45,8.0,12.0,70,0.00,,,0.00,,2014-03-16 10:53:00,
2014-03-16 06:22:00,35.0,26.0,30.02,ENE,75,10.0,19.0,70,0.00,,,0.00,,2014-03-16 11:22:00,
2014-03-16 06:43:00,34.0,25.0,30.03,NE,40,10.0,18.0,70,0.00,,,0.00,,2014-03-16 11:43:00,
2014-03-16 06:52:00,34.0,25.0,30.03,NE,37,8.0,16.0,70,0.00,,,0.00,,2014-03-16 11:52:00,
2014-03-16 07:22:00,34.0,25.0,30.04,NE,42,6.0,14.0,68,0.00,,,0.00,,2014-03-16 12:22:00,
2014-03-16 07:52:00,33.0,23.0,30.05,NE,56,10.0,22.0,67,0.00,,,0.00,,2014-03-16 12:52:00,
2014-03-16 08:22:00,33.0,21.0,30.06,NE,40,9.0,22.0,60,0.00,,,0.00,,2014-03-16 13:22:00,
2014-03-16 08:52:00,33.0,19.0,30.08,NE,44,11.0,19.0,56,0.00,,,0.00,,2014-03-16 13:52:00,
2014-03-16 09:11:00,33.0,20.0,30.10,NE,52,8.0,30.0,59,0.00,,,0.00,,2014-03-16 14:11:00,
2014-03-16 09:22:00,33.0,20.0,30.10,NE,51,9.0,22.0,59,0.00,,,0.00,,2014-03-16 14:22:00,
2014-03-16 09:42:00,32.0,20.0,30.12,NE,51,11.0,18.0,61,0.00,,,0.00,,2014-03-16 14:42:00,
2014-03-16 09:52:00,32.0,20.0,30.11,NE,35,7.0,21.0,62,0.00,,,0.00,,2014-03-16 14:52:00,
2014-03-16 10:22:00,32.0,20.0,30.13,NNE,26,7.0,20.0,60,0.00,,,0.00,,2014-03-16 15:22:00,
2014-03-16 10:53:00,32.0,19.0,30.14,NE,40,10.0,20.0,58,0.00,,,0.00,,2014-03-16 15:53:00,
2014-03-16 11:23:00,33.0,19.0,30.13,NE,44,7.0,22.0,56,0.00,,,0.00,,2014-03-16 16:23:00,
2014-03-16 11:53:00,33.0,18.0,30.13,NNE,26,9.0,18.0,54,0.00,,,0.00,,2014-03-16 16:53:00,
2014-03-16 12:23:00,33.0,18.0,30.14,NE,36,8.0,18.0,54,0.00,,,0.00,,2014-03-16 17:23:00,
2014-03-16 12:42:00,33.0,19.0,30.13,North,5,9.0,19.0,55,0.00,,,0.00,,2014-03-16 17:42:00,
2014-03-16 12:52:00,33.0,18.0,30.13,NE,53,5.0,16.0,54,0.00,,,0.00,,2014-03-16 17:52:00,
2014-03-16 13:22:00,34.0,19.0,30.13,NNE,20,6.0,19.0,54,0.00,,,0.00,,2014-03-16 18:22:00,
2014-03-16 13:42:00,34.0,20.0,30.13,ENE,66,9.0,18.0,57,0.00,,,0.00,,2014-03-16 18:42:00,
2014-03-16 13:52:00,34.0,20.0,30.13,ENE,76,6.0,18.0,57,0.00,,,0.00,,2014-03-16 18:52:00,
2014-03-16 14:22:00,34.0,23.0,30.12,North,355,11.0,16.0,63,0.00,,,0.00,,2014-03-16 19:22:00,
2014-03-16 14:42:00,33.0,22.0,30.12,North,355,7.0,15.0,63,0.00,,,0.00,,2014-03-16 19:42:00,
2014-03-16 14:52:00,33.0,21.0,30.11,North,5,9.0,17.0,62,0.00,,,0.00,,2014-03-16 19:52:00,
2014-03-16 15:22:00,34.0,19.0,30.11,ENE,59,10.0,19.0,54,0.00,,,0.00,,2014-03-16 20:22:00,
2014-03-16 15:53:00,35.0,19.0,30.10,NE,48,6.0,18.0,52,0.00,,,0.00,,2014-03-16 20:53:00,
2014-03-16 16:22:00,34.0,16.0,30.10,NNE,28,8.0,17.0,47,0.00,,,0.00,,2014-03-16 21:22:00,
2014-03-16 16:53:00,35.0,17.0,30.11,NE,34,6.0,20.0,48,0.00,,,0.00,,2014-03-16 21:53:00,
2014-03-16 17:23:00,34.0,16.0,30.11,North,5,8.0,19.0,48,0.00,,,0.00,,2014-03-16 22:23:00,
2014-03-16 17:42:00,34.0,17.0,30.10,NNE,14,8.0,19.0,49,0.00,,,0.00,,2014-03-16 22:42:00,
2014-03-16 17:52:00,33.0,16.0,30.09,NE,42,9.0,16.0,49,0.00,,,0.00,,2014-03-16 22:52:00,
2014-03-16 18:22:00,33.0,17.0,30.09,NNE,18,5.0,14.0,51,0.00,,,0.00,,2014-03-16 23:22:00,
2014-03-16 18:43:00,32.0,16.0,30.10,North,360,6.0,16.0,51,0.00,,,0.00,,2014-03-16 23:43:00,
2014-03-16 18:52:00,32.0,16.0,30.10,NE,52,8.0,18.0,52,0.00,,,0.00,,2014-03-16 23:52:00,
2014-03-16 19:12:00,31.0,16.0,30.10,NNE,23,6.0,16.0,53,0.00,,,0.00,,2014-03-17 00:12:00,
2014-03-16 19:22:00,31.0,16.0,30.10,NNE,15,4.0,12.0,54,0.00,,,0.00,,2014-03-17 00:22:00,
2014-03-16 19:42:00,30.0,15.0,30.11,NE,37,7.0,18.0,54,0.00,,,0.00,,2014-03-17 00:42:00,
2014-03-16 19:53:00,30.0,15.0,30.11,North,5,6.0,14.0,54,0.00,,,0.00,,2014-03-17 00:53:00,
2014-03-16 20:22:00,30.0,16.0,30.12,North,360,4.0,12.0,56,0.00,,,0.00,,2014-03-17 01:22:00,
2014-03-16 20:42:00,30.0,17.0,30.13,NNE,30,4.0,17.0,57,0.00,,,0.00,,2014-03-17 01:42:00,
2014-03-16 20:52:00,29.0,16.0,30.14,NNE,25,4.0,15.0,58,0.00,,,0.00,,2014-03-17 01:52:00,
2014-03-16 21:11:00,29.0,16.0,30.14,North,355,7.0,13.0,58,0.00,,,0.00,,2014-03-17 02:11:00,
2014-03-16 21:22:00,29.0,16.0,30.14,NNW,345,6.0,13.0,59,0.00,,,0.00,,2014-03-17 02:22:00,
2014-03-16 21:42:00,29.0,17.0,30.14,NNE,19,5.0,11.0,60,0.00,,,0.00,,2014-03-17 02:42:00,
2014-03-16 21:52:00,28.0,16.0,30.14,NE,38,4.0,11.0,60,0.00,,,0.00,,2014-03-17 02:52:00,
2014-03-16 22:11:00,28.0,16.0,30.14,NNE,31,4.0,9.0,61,0.00,,,0.00,,2014-03-17 03:11:00,
2014-03-16 22:22:00,28.0,16.0,30.14,NE,44,5.0,13.0,61,0.00,,,0.00,,2014-03-17 03:22:00,
2014-03-16 23:43:00,27.0,16.0,30.13,North,360,2.0,7.0,64,0.00,,,0.00,,2014-03-17 04:43:00,
2014-03-16 23:54:00,27.0,16.0,30.13,North,5,2.0,7.0,64,0.00,,,0.00,,2014-03-17 04:54:00,